Time;durP1;ratioP1;P1;durP2;ratioP2;P2;SDS_P1;SDS_P2;PMS_P1;PMS_P2;Temp;Humidity;BMP_temperature;BMP_pressure;BME280_temperature;BME280_humidity;BME280_pressure;Samples;Min_cycle;Max_cycle;Signal;HPM_P1;HPM_P2
2023/03/23 00:01:49;;;;;;;5.68;2.28;;;;;;;;;;4999629;28;20031;-80
2023/03/23 00:04:18;;;;;;;5.60;2.20;;;;;;;;;;4991113;28;20026;-79
2023/03/23 00:06:44;;;;;;;5.20;2.40;;;;;;;;;;5005489;28;20490;-79
2023/03/23 00:09:12;;;;;;;5.10;2.70;;;;;;;;;;4996783;28;20034;-79
2023/03/23 00:11:38;;;;;;;4.80;2.30;;;;;;;;;;4985454;28;20099;-80
2023/03/23 00:14:04;;;;;;;4.15;2.20;;;;;;;;;;4999676;28;20030;-80
2023/03/23 00:16:32;;;;;;;5.45;2.47;;;;;;;;;;4987200;28;20048;-79
2023/03/23 00:19:09;;;;;;;5.43;2.42;;;;;;;;;;5004044;28;20033;-79
2023/03/23 00:21:38;;;;;;;5.47;2.53;;;;;;;;;;5003801;28;20026;-79
2023/03/23 00:24:06;;;;;;;5.53;2.60;;;;;;;;;;4999065;28;20029;-79
2023/03/23 00:26:33;;;;;;;5.35;2.35;;;;;;;;;;4992082;28;20030;-79
2023/03/23 00:29:03;;;;;;;4.30;2.10;;;;;;;;;;5001991;28;20083;-79
2023/03/23 00:31:31;;;;;;;4.45;2.38;;;;;;;;;;4989558;28;20022;-79
2023/03/23 00:34:00;;;;;;;4.65;2.05;;;;;;;;;;4999350;28;20065;-79
2023/03/23 00:36:26;;;;;;;5.82;2.42;;;;;;;;;;5000601;28;20033;-79
2023/03/23 00:38:52;;;;;;;4.72;2.17;;;;;;;;;;4983537;28;20042;-79
2023/03/23 00:41:17;;;;;;;5.07;2.40;;;;;;;;;;5008388;28;20006;-80
2023/03/23 00:43:43;;;;;;;4.00;2.38;;;;;;;;;;4997440;28;20030;-79
2023/03/23 00:46:09;;;;;;;4.60;2.60;;;;;;;;;;5003635;28;20014;-79
2023/03/23 00:48:40;;;;;;;3.95;2.17;;;;;;;;;;5002517;28;20046;-79
2023/03/23 00:51:10;;;;;;;4.57;2.67;;;;;;;;;;5005513;28;20033;-79
2023/03/23 00:53:35;;;;;;;5.70;2.55;;;;;;;;;;4995750;28;20085;-79
2023/03/23 00:56:00;;;;;;;5.57;2.83;;;;;;;;;;4996388;28;20051;-79
2023/03/23 00:58:26;;;;;;;4.15;2.45;;;;;;;;;;4997375;28;21155;-79
2023/03/23 01:00:51;;;;;;;4.80;2.60;;;;;;;;;;5003323;28;20041;-79
2023/03/23 01:03:18;;;;;;;5.00;2.50;;;;;;;;;;4995249;28;20064;-79
2023/03/23 01:05:46;;;;;;;5.35;2.53;;;;;;;;;;4989046;28;20094;-79
2023/03/23 01:08:13;;;;;;;5.63;2.65;;;;;;;;;;5008728;28;20011;-79
2023/03/23 01:10:39;;;;;;;6.55;2.63;;;;;;;;;;5013120;28;20474;-79
2023/03/23 01:13:06;;;;;;;4.60;2.50;;;;;;;;;;4997630;28;20018;-79
2023/03/23 01:15:31;;;;;;;4.90;2.30;;;;;;;;;;4987718;28;20015;-79
2023/03/23 01:17:57;;;;;;;4.75;2.60;;;;;;;;;;5009274;28;20037;-79
2023/03/23 01:20:24;;;;;;;5.30;2.40;;;;;;;;;;5004630;28;20023;-79
2023/03/23 01:22:50;;;;;;;5.20;2.75;;;;;;;;;;4994740;28;20026;-79
2023/03/23 01:25:15;;;;;;;5.05;2.63;;;;;;;;;;4995678;28;20049;-79
2023/03/23 01:27:41;;;;;;;4.50;2.38;;;;;;;;;;4994287;28;20033;-79
2023/03/23 01:30:11;;;;;;;4.35;2.50;;;;;;;;;;5001946;28;20053;-79
2023/03/23 01:32:36;;;;;;;4.63;2.55;;;;;;;;;;4987311;28;20385;-79
2023/03/23 01:35:01;;;;;;;4.82;2.55;;;;;;;;;;5007146;28;20030;-79
2023/03/23 01:37:27;;;;;;;5.25;2.30;;;;;;;;;;4993088;28;20085;-79
2023/03/23 01:39:53;;;;;;;4.45;2.75;;;;;;;;;;4991675;28;20045;-79
2023/03/23 01:42:22;;;;;;;5.68;2.78;;;;;;;;;;4990105;28;20050;-79
2023/03/23 01:44:47;;;;;;;5.03;2.65;;;;;;;;;;5004546;28;20026;-79
2023/03/23 01:47:13;;;;;;;5.35;2.70;;;;;;;;;;4997778;28;20379;-79
2023/03/23 01:49:43;;;;;;;6.60;2.72;;;;;;;;;;5012549;28;20026;-79
2023/03/23 01:52:16;;;;;;;5.05;2.85;;;;;;;;;;5006443;28;20064;-79
2023/03/23 01:54:44;;;;;;;;;;;;;;;;;;4996996;28;20069;-79
2023/03/23 01:57:14;;;;;;;4.90;2.70;;;;;;;;;;4990318;28;19914;-79
2023/03/23 01:59:42;;;;;;;7.15;3.10;;;;;;;;;;4995315;28;20033;-79
2023/03/23 02:02:10;;;;;;;4.28;2.65;;;;;;;;;;4949825;28;1124252;-79
2023/03/23 02:04:36;;;;;;;5.45;2.80;;;;;;;;;;4981513;28;20239;-80
2023/03/23 02:07:03;;;;;;;4.57;2.90;;;;;;;;;;4996040;28;20114;-77
2023/03/23 02:09:29;;;;;;;4.65;2.60;;;;;;;;;;4989210;28;20022;-77
2023/03/23 02:11:54;;;;;;;4.38;2.80;;;;;;;;;;4985627;28;20509;-79
2023/03/23 02:14:21;;;;;;;4.65;2.80;;;;;;;;;;5009201;28;20057;-77
2023/03/23 02:17:02;;;;;;;5.65;3.13;;;;;;;;;;4989626;28;20402;-78
2023/03/23 02:19:40;;;;;;;4.55;2.83;;;;;;;;;;5014578;28;20049;-77
2023/03/23 02:22:30;;;;;;;4.95;2.90;;;;;;;;;;4984918;28;20026;-77
2023/03/23 02:25:14;;;;;;;4.63;2.90;;;;;;;;;;5000569;28;20550;-77
2023/03/23 02:28:02;;;;;;;4.70;2.78;;;;;;;;;;4999018;28;20038;-79
2023/03/23 02:30:52;;;;;;;5.13;2.95;;;;;;;;;;4999415;28;20090;-77
2023/03/23 02:33:36;;;;;;;4.78;2.97;;;;;;;;;;4999412;28;20036;-76
2023/03/23 02:36:12;;;;;;;5.65;2.92;;;;;;;;;;4996914;28;20037;-78
2023/03/23 02:38:55;;;;;;;4.72;2.95;;;;;;;;;;4980029;28;20105;-78
2023/03/23 02:41:26;;;;;;;4.95;3.13;;;;;;;;;;4999650;28;20056;-77
2023/03/23 02:43:53;;;;;;;5.15;2.90;;;;;;;;;;4987436;28;20097;-77
2023/03/23 02:46:20;;;;;;;5.57;2.95;;;;;;;;;;5000557;28;20037;-77
2023/03/23 02:48:50;;;;;;;5.50;3.03;;;;;;;;;;5000068;28;20027;-77
2023/03/23 02:51:18;;;;;;;5.05;3.03;;;;;;;;;;5005160;28;20032;-77
2023/03/23 02:53:44;;;;;;;5.30;3.10;;;;;;;;;;4991791;28;20030;-76
2023/03/23 02:56:12;;;;;;;6.05;2.85;;;;;;;;;;4982526;28;20030;-77
2023/03/23 02:58:37;;;;;;;8.43;3.28;;;;;;;;;;4985756;28;20026;-77
2023/03/23 03:01:25;;;;;;;5.03;2.72;;;;;;;;;;4979941;28;20037;-79
2023/03/23 03:03:51;;;;;;;5.03;2.55;;;;;;;;;;5001859;28;20030;-76
2023/03/23 03:06:29;;;;;;;5.78;2.85;;;;;;;;;;5005991;28;20022;-77
2023/03/23 03:09:02;;;;;;;5.22;2.92;;;;;;;;;;4988018;28;20145;-77
2023/03/23 03:11:31;;;;;;;3.92;2.53;;;;;;;;;;4981103;28;20675;-77
2023/03/23 03:13:59;;;;;;;4.40;2.60;;;;;;;;;;5001484;28;20018;-77
2023/03/23 03:16:31;;;;;;;8.25;2.70;;;;;;;;;;4994107;28;20114;-77
2023/03/23 03:19:00;;;;;;;5.78;2.80;;;;;;;;;;4991356;28;20469;-77
2023/03/23 03:21:28;;;;;;;4.35;2.70;;;;;;;;;;4994942;28;20115;-77
2023/03/23 03:23:58;;;;;;;6.93;2.78;;;;;;;;;;5007137;28;20022;-77
2023/03/23 03:26:29;;;;;;;5.88;2.97;;;;;;;;;;5000931;28;20026;-78
2023/03/23 03:28:55;;;;;;;4.50;2.33;;;;;;;;;;4997759;28;20467;-77
2023/03/23 03:31:27;;;;;;;5.00;2.63;;;;;;;;;;4981120;28;20090;-78
2023/03/23 03:33:53;;;;;;;4.72;2.40;;;;;;;;;;4994887;28;20090;-79
2023/03/23 03:36:23;;;;;;;4.85;2.42;;;;;;;;;;4995269;28;20058;-78
2023/03/23 03:38:50;;;;;;;4.95;2.30;;;;;;;;;;4998486;28;20027;-77
2023/03/23 03:41:17;;;;;;;6.57;2.42;;;;;;;;;;5008080;28;20030;-77
2023/03/23 03:43:43;;;;;;;6.53;2.60;;;;;;;;;;5001395;28;20045;-77
2023/03/23 03:46:08;;;;;;;6.88;2.95;;;;;;;;;;4985979;28;20209;-77
2023/03/23 03:48:34;;;;;;;4.88;2.72;;;;;;;;;;5001989;28;20029;-77
2023/03/23 03:51:00;;;;;;;5.18;2.50;;;;;;;;;;4998027;28;20126;-77
2023/03/23 03:53:26;;;;;;;5.57;2.60;;;;;;;;;;4997089;28;20101;-78
2023/03/23 03:55:55;;;;;;;5.85;2.70;;;;;;;;;;5001993;28;20028;-76
2023/03/23 03:58:24;;;;;;;5.45;2.58;;;;;;;;;;4985213;28;20156;-77
2023/03/23 04:00:50;;;;;;;4.20;2.65;;;;;;;;;;4996622;28;20023;-77
2023/03/23 04:03:16;;;;;;;5.25;2.60;;;;;;;;;;4988970;28;20035;-79
2023/03/23 04:05:42;;;;;;;6.30;2.85;;;;;;;;;;5000687;28;20034;-77
2023/03/23 04:08:07;;;;;;;5.32;2.67;;;;;;;;;;4984206;28;20109;-77
2023/03/23 04:10:33;;;;;;;3.55;2.20;;;;;;;;;;4986482;28;20026;-77
2023/03/23 04:12:59;;;;;;;5.60;2.40;;;;;;;;;;4996218;28;20087;-77
2023/03/23 04:15:24;;;;;;;5.32;2.17;;;;;;;;;;4991729;28;20106;-77
2023/03/23 04:17:50;;;;;;;4.00;2.40;;;;;;;;;;4990585;28;20030;-77
2023/03/23 04:20:18;;;;;;;4.05;2.00;;;;;;;;;;4988659;28;20082;-77
2023/03/23 04:22:45;;;;;;;3.85;1.83;;;;;;;;;;4998877;28;20022;-79
2023/03/23 04:25:12;;;;;;;7.38;2.20;;;;;;;;;;4984909;28;20054;-77
2023/03/23 04:27:39;;;;;;;4.78;2.13;;;;;;;;;;4986972;28;20026;-77
2023/03/23 04:30:06;;;;;;;2.92;1.60;;;;;;;;;;5003602;28;20027;-77
2023/03/23 04:32:31;;;;;;;6.57;1.77;;;;;;;;;;5003690;28;20022;-77
2023/03/23 04:34:59;;;;;;;4.15;1.80;;;;;;;;;;5005750;28;20038;-77
2023/03/23 04:37:28;;;;;;;5.50;1.85;;;;;;;;;;5018993;28;20060;-77
2023/03/23 04:40:00;;;;;;;4.30;1.90;;;;;;;;;;5006569;28;20026;-77
2023/03/23 04:42:30;;;;;;;6.30;1.75;;;;;;;;;;5022156;28;20619;-77
2023/03/23 04:44:57;;;;;;;4.63;1.60;;;;;;;;;;4991871;28;20034;-77
2023/03/23 04:47:24;;;;;;;5.18;1.70;;;;;;;;;;4993753;28;20030;-78
2023/03/23 04:49:51;;;;;;;3.60;1.30;;;;;;;;;;5004544;28;20029;-78
2023/03/23 04:52:17;;;;;;;4.47;1.40;;;;;;;;;;4985551;28;20031;-78
2023/03/23 04:54:42;;;;;;;5.10;1.23;;;;;;;;;;5008777;28;20026;-77
2023/03/23 04:57:08;;;;;;;6.05;1.63;;;;;;;;;;5009100;28;20101;-77
2023/03/23 04:59:34;;;;;;;4.78;1.30;;;;;;;;;;5008156;28;20061;-77
2023/03/23 05:01:59;;;;;;;5.25;1.33;;;;;;;;;;4989737;28;20399;-79
2023/03/23 05:04:25;;;;;;;3.33;1.33;;;;;;;;;;4997729;28;20026;-77
2023/03/23 05:06:51;;;;;;;4.20;1.30;;;;;;;;;;5007203;28;20505;-77
2023/03/23 05:09:17;;;;;;;4.55;1.38;;;;;;;;;;5004271;28;20032;-77
2023/03/23 05:11:42;;;;;;;5.03;1.45;;;;;;;;;;5005266;28;20026;-77
2023/03/23 05:14:08;;;;;;;4.85;1.35;;;;;;;;;;4998242;28;20026;-78
2023/03/23 05:16:36;;;;;;;3.83;1.33;;;;;;;;;;4992296;28;20490;-78
2023/03/23 05:19:02;;;;;;;5.60;1.35;;;;;;;;;;5005428;28;20031;-77
2023/03/23 05:21:28;;;;;;;6.68;1.02;;;;;;;;;;4991916;28;20053;-78
2023/03/23 05:23:54;;;;;;;4.43;1.08;;;;;;;;;;5007856;28;20045;-77
2023/03/23 05:26:21;;;;;;;5.25;1.20;;;;;;;;;;4985623;28;20060;-77
2023/03/23 05:28:48;;;;;;;3.60;1.50;;;;;;;;;;4998964;28;20029;-77
2023/03/23 05:31:13;;;;;;;5.78;1.40;;;;;;;;;;4995515;28;20033;-77
2023/03/23 05:33:38;;;;;;;3.35;1.13;;;;;;;;;;5007094;28;20093;-78
2023/03/23 05:36:06;;;;;;;4.70;2.08;;;;;;;;;;5006157;28;20031;-77
2023/03/23 05:38:32;;;;;;;3.78;1.10;;;;;;;;;;5002003;28;20054;-77
2023/03/23 05:41:01;;;;;;;5.35;1.13;;;;;;;;;;5005412;28;20043;-77
2023/03/23 05:43:26;;;;;;;3.05;1.00;;;;;;;;;;5007324;28;20034;-77
2023/03/23 05:45:52;;;;;;;6.60;1.48;;;;;;;;;;4999472;28;20041;-77
2023/03/23 05:48:17;;;;;;;4.57;1.25;;;;;;;;;;5003291;28;20034;-79
2023/03/23 05:50:43;;;;;;;7.05;1.38;;;;;;;;;;4986252;28;20037;-77
2023/03/23 05:53:08;;;;;;;4.43;1.10;;;;;;;;;;5007439;28;20034;-80
2023/03/23 05:55:34;;;;;;;3.70;0.90;;;;;;;;;;5003274;28;20084;-79
2023/03/23 05:57:59;;;;;;;4.30;1.10;;;;;;;;;;5003026;28;20054;-80
2023/03/23 06:00:28;;;;;;;6.72;1.73;;;;;;;;;;5009872;28;20057;-79
2023/03/23 06:02:56;;;;;;;5.82;1.50;;;;;;;;;;5001555;28;20054;-77
2023/03/23 06:05:22;;;;;;;4.15;1.60;;;;;;;;;;5002275;28;20053;-78
2023/03/23 06:07:47;;;;;;;3.35;1.00;;;;;;;;;;4990290;28;20097;-77
2023/03/23 06:10:13;;;;;;;2.17;0.90;;;;;;;;;;5001376;28;20061;-77
2023/03/23 06:12:40;;;;;;;6.05;1.52;;;;;;;;;;5004823;28;20030;-77
2023/03/23 06:15:07;;;;;;;5.80;1.38;;;;;;;;;;4996207;28;20037;-77
2023/03/23 06:17:33;;;;;;;5.03;1.33;;;;;;;;;;4995058;28;20121;-78
2023/03/23 06:19:59;;;;;;;3.47;1.00;;;;;;;;;;4988347;28;20030;-78
2023/03/23 06:22:25;;;;;;;5.05;1.20;;;;;;;;;;4990988;28;20050;-77
2023/03/23 06:24:50;;;;;;;4.82;1.08;;;;;;;;;;4998908;28;20303;-78
2023/03/23 06:27:17;;;;;;;4.60;1.10;;;;;;;;;;5003756;28;20022;-78
2023/03/23 06:29:43;;;;;;;4.28;1.38;;;;;;;;;;4991283;28;20014;-77
2023/03/23 06:32:10;;;;;;;4.22;0.90;;;;;;;;;;5002449;28;20493;-79
2023/03/23 06:34:36;;;;;;;5.88;1.73;;;;;;;;;;5007050;28;20030;-79
2023/03/23 06:37:01;;;;;;;3.10;1.13;;;;;;;;;;5007019;28;20061;-77
2023/03/23 06:39:27;;;;;;;5.55;1.30;;;;;;;;;;4994963;28;20037;-77
2023/03/23 06:41:52;;;;;;;3.55;1.25;;;;;;;;;;5004121;28;20035;-78
2023/03/23 06:44:18;;;;;;;4.30;1.25;;;;;;;;;;4986938;28;20034;-77
2023/03/23 06:46:43;;;;;;;5.00;1.23;;;;;;;;;;5004180;28;20080;-78
2023/03/23 06:49:09;;;;;;;4.28;0.93;;;;;;;;;;5001200;28;20049;-77
2023/03/23 06:51:35;;;;;;;7.20;1.25;;;;;;;;;;5020228;28;20022;-76
2023/03/23 06:54:00;;;;;;;5.97;1.38;;;;;;;;;;5004659;28;20057;-76
2023/03/23 06:56:26;;;;;;;3.88;1.02;;;;;;;;;;4986598;28;20042;-76
2023/03/23 06:58:52;;;;;;;3.63;1.05;;;;;;;;;;4999695;28;20026;-76
2023/03/23 07:01:18;;;;;;;4.15;1.02;;;;;;;;;;4988599;28;20034;-76
2023/03/23 07:03:44;;;;;;;4.53;1.42;;;;;;;;;;4989566;28;20056;-76
2023/03/23 07:06:10;;;;;;;4.97;1.10;;;;;;;;;;5001994;28;20053;-77
2023/03/23 07:08:36;;;;;;;5.18;1.20;;;;;;;;;;5019380;28;20036;-76
2023/03/23 07:11:02;;;;;;;3.47;1.10;;;;;;;;;;4986563;28;20033;-76
2023/03/23 07:13:28;;;;;;;4.47;1.77;;;;;;;;;;4982981;28;20033;-75
2023/03/23 07:15:54;;;;;;;3.83;1.35;;;;;;;;;;4987193;28;20030;-76
2023/03/23 07:18:21;;;;;;;2.78;1.20;;;;;;;;;;4992592;28;22328;-76
2023/03/23 07:20:51;;;;;;;5.25;1.50;;;;;;;;;;5004235;28;20108;-76
2023/03/23 07:23:18;;;;;;;6.03;1.73;;;;;;;;;;5002170;28;20036;-76
2023/03/23 07:25:44;;;;;;;4.88;1.48;;;;;;;;;;4982678;28;20501;-75
2023/03/23 07:28:10;;;;;;;6.68;1.38;;;;;;;;;;4990019;28;20038;-76
2023/03/23 07:30:36;;;;;;;4.13;2.15;;;;;;;;;;4987128;28;20037;-76
2023/03/23 07:33:08;;;;;;;4.32;1.40;;;;;;;;;;5001863;28;20026;-77
2023/03/23 07:35:34;;;;;;;5.13;1.85;;;;;;;;;;4995345;28;20038;-77
2023/03/23 07:38:00;;;;;;;3.67;1.23;;;;;;;;;;4990344;28;20053;-77
2023/03/23 07:40:26;;;;;;;4.60;1.30;;;;;;;;;;5001481;28;20034;-77
2023/03/23 07:42:53;;;;;;;5.90;1.40;;;;;;;;;;5004428;28;20042;-78
2023/03/23 07:45:19;;;;;;;5.70;1.50;;;;;;;;;;4980998;28;20038;-76
2023/03/23 07:47:44;;;;;;;3.00;1.40;;;;;;;;;;5002270;28;20026;-76
2023/03/23 07:50:11;;;;;;;5.80;1.63;;;;;;;;;;4992347;28;20501;-76
2023/03/23 07:52:38;;;;;;;6.22;1.55;;;;;;;;;;4983786;28;20037;-77
2023/03/23 07:55:05;;;;;;;5.18;1.30;;;;;;;;;;4989644;28;20037;-78
2023/03/23 07:57:32;;;;;;;6.05;1.33;;;;;;;;;;4983582;28;20094;-76
2023/03/23 07:59:58;;;;;;;4.28;1.30;;;;;;;;;;5016163;28;20030;-76
2023/03/23 08:02:24;;;;;;;3.15;0.95;;;;;;;;;;4998240;28;20396;-76
2023/03/23 08:04:50;;;;;;;5.38;1.00;;;;;;;;;;4998730;28;20042;-76
2023/03/23 08:07:17;;;;;;;3.42;1.25;;;;;;;;;;4984550;28;20388;-76
2023/03/23 08:09:43;;;;;;;6.00;1.48;;;;;;;;;;5002638;28;20021;-76
2023/03/23 08:12:08;;;;;;;3.00;1.00;;;;;;;;;;4991456;28;20409;-76
2023/03/23 08:14:34;;;;;;;2.30;1.00;;;;;;;;;;5007164;28;20030;-75
2023/03/23 08:17:00;;;;;;;4.30;1.17;;;;;;;;;;5017447;28;20034;-76
2023/03/23 08:19:26;;;;;;;3.42;1.00;;;;;;;;;;4991780;28;20034;-75
2023/03/23 08:21:52;;;;;;;2.88;1.00;;;;;;;;;;5000446;28;20026;-76
2023/03/23 08:24:18;;;;;;;2.05;1.00;;;;;;;;;;5001473;28;20087;-76
2023/03/23 08:26:44;;;;;;;4.07;0.90;;;;;;;;;;5002199;28;20030;-75
2023/03/23 08:29:09;;;;;;;2.70;0.70;;;;;;;;;;4995387;28;20030;-79
2023/03/23 08:31:35;;;;;;;2.00;0.80;;;;;;;;;;4996368;28;20086;-78
2023/03/23 08:34:04;;;;;;;2.00;0.85;;;;;;;;;;5001081;28;20478;-78
2023/03/23 08:36:33;;;;;;;2.72;0.93;;;;;;;;;;4985057;28;20031;-78
2023/03/23 08:38:59;;;;;;;2.53;0.65;;;;;;;;;;4980108;28;20030;-78
2023/03/23 08:41:25;;;;;;;1.60;0.55;;;;;;;;;;4985124;28;20050;-79
2023/03/23 08:43:52;;;;;;;2.17;0.80;;;;;;;;;;5019719;28;20030;-78
2023/03/23 08:46:19;;;;;;;2.88;0.70;;;;;;;;;;4993682;28;20080;-78
2023/03/23 08:48:45;;;;;;;1.63;0.60;;;;;;;;;;4988689;28;20060;-80
2023/03/23 08:51:11;;;;;;;1.98;0.60;;;;;;;;;;5002203;28;20101;-78
2023/03/23 08:53:37;;;;;;;1.52;0.60;;;;;;;;;;5008189;28;20037;-78
2023/03/23 08:56:07;;;;;;;1.77;0.73;;;;;;;;;;5009244;28;20018;-78
2023/03/23 08:58:34;;;;;;;1.80;0.50;;;;;;;;;;4996267;28;20516;-77
2023/03/23 09:01:00;;;;;;;1.52;0.50;;;;;;;;;;4987311;28;20033;-79
2023/03/23 09:03:25;;;;;;;2.63;0.60;;;;;;;;;;5000465;28;20121;-78
2023/03/23 09:05:51;;;;;;;1.40;0.60;;;;;;;;;;5002645;28;20069;-78
2023/03/23 09:08:17;;;;;;;1.35;0.70;;;;;;;;;;4985655;28;20031;-78
2023/03/23 09:10:43;;;;;;;1.75;0.52;;;;;;;;;;5005195;28;20481;-78
2023/03/23 09:13:08;;;;;;;3.50;0.70;;;;;;;;;;4984509;28;20027;-80
2023/03/23 09:15:33;;;;;;;1.70;0.60;;;;;;;;;;4999251;28;20041;-78
2023/03/23 09:18:00;;;;;;;3.40;0.80;;;;;;;;;;4990897;28;20371;-79
2023/03/23 09:20:27;;;;;;;4.00;0.80;;;;;;;;;;4987648;28;20117;-78
2023/03/23 09:22:56;;;;;;;3.35;0.85;;;;;;;;;;5012592;28;20030;-78
2023/03/23 09:25:25;;;;;;;2.28;1.02;;;;;;;;;;5006679;28;20053;-78
2023/03/23 09:27:56;;;;;;;3.78;0.98;;;;;;;;;;5009492;28;20496;-78
2023/03/23 09:30:22;;;;;;;2.10;0.70;;;;;;;;;;4986861;28;20426;-76
2023/03/23 09:32:48;;;;;;;4.47;1.00;;;;;;;;;;4997819;28;20023;-77
2023/03/23 09:35:16;;;;;;;4.28;0.93;;;;;;;;;;5001484;28;20074;-78
2023/03/23 09:37:43;;;;;;;3.47;0.85;;;;;;;;;;4980720;28;20041;-78
2023/03/23 09:40:20;;;;;;;5.95;1.10;;;;;;;;;;5002103;28;20036;-77
2023/03/23 09:42:48;;;;;;;5.53;1.05;;;;;;;;;;5001981;28;20106;-77
2023/03/23 09:45:29;;;;;;;4.65;1.15;;;;;;;;;;4983115;28;20030;-77
2023/03/23 09:48:13;;;;;;;6.90;1.52;;;;;;;;;;4974995;28;20026;-77
2023/03/23 09:50:42;;;;;;;6.65;0.93;;;;;;;;;;5004404;28;20026;-78
2023/03/23 09:53:27;;;;;;;7.43;1.42;;;;;;;;;;5007963;28;20047;-77
2023/03/23 09:55:54;;;;;;;5.45;1.17;;;;;;;;;;4999145;28;20042;-77
2023/03/23 09:58:28;;;;;;;8.30;1.33;;;;;;;;;;4972508;28;20035;-78
2023/03/23 10:01:06;;;;;;;5.07;1.42;;;;;;;;;;5000120;28;20075;-77
2023/03/23 10:03:41;;;;;;;7.25;1.52;;;;;;;;;;4983871;28;20675;-77
2023/03/23 10:06:12;;;;;;;7.53;1.60;;;;;;;;;;5009081;28;20026;-77
2023/03/23 10:08:44;;;;;;;5.53;1.20;;;;;;;;;;4993175;28;20031;-78
2023/03/23 10:11:18;;;;;;;5.57;1.50;;;;;;;;;;4993698;28;20034;-77
2023/03/23 10:14:08;;;;;;;6.28;1.50;;;;;;;;;;4990977;28;20382;-77
2023/03/23 10:16:48;;;;;;;6.03;1.50;;;;;;;;;;4957137;28;20512;-76
2023/03/23 10:19:35;;;;;;;5.07;1.42;;;;;;;;;;4999895;28;20069;-77
2023/03/23 10:22:10;;;;;;;5.93;1.55;;;;;;;;;;5016038;28;20022;-77
2023/03/23 10:25:02;;;;;;;6.53;2.30;;;;;;;;;;5003525;28;20029;-77
2023/03/23 10:27:34;;;;;;;4.95;1.77;;;;;;;;;;5007027;28;20034;-77
2023/03/23 10:30:15;;;;;;;6.72;1.70;;;;;;;;;;4984767;28;20029;-79
2023/03/23 10:32:51;;;;;;;6.88;1.80;;;;;;;;;;4976679;28;20542;-78
2023/03/23 10:35:25;;;;;;;7.75;1.77;;;;;;;;;;4979418;28;20152;-77
2023/03/23 10:37:54;;;;;;;;;;;;;;;;;;4985971;28;20030;-77
2023/03/23 10:40:26;;;;;;;5.10;1.77;;;;;;;;;;5000182;28;19984;-78
2023/03/23 10:42:52;;;;;;;5.78;2.15;;;;;;;;;;4990861;28;20034;-78
2023/03/23 10:45:32;;;;;;;4.43;1.77;;;;;;;;;;5001282;28;20066;-77
2023/03/23 10:48:17;;;;;;;5.85;2.10;;;;;;;;;;5001053;28;20722;-77
2023/03/23 10:50:45;;;;;;;6.45;2.50;;;;;;;;;;4989004;28;20061;-78
2023/03/23 10:53:23;;;;;;;5.43;2.30;;;;;;;;;;4994006;28;20034;-78
2023/03/23 10:55:49;;;;;;;6.32;2.25;;;;;;;;;;4995397;28;20030;-77
2023/03/23 10:58:35;;;;;;;5.40;1.83;;;;;;;;;;4987396;28;20045;-78
2023/03/23 11:01:05;;;;;;;6.32;2.20;;;;;;;;;;4983431;28;20085;-77
2023/03/23 11:03:43;;;;;;;5.15;1.80;;;;;;;;;;5000638;28;20025;-78
2023/03/23 11:06:17;;;;;;;5.35;2.00;;;;;;;;;;5005969;28;20041;-77
2023/03/23 11:08:49;;;;;;;5.65;2.35;;;;;;;;;;4984605;28;20037;-78
2023/03/23 11:11:30;;;;;;;6.25;2.10;;;;;;;;;;5000860;28;20061;-77
2023/03/23 11:14:01;;;;;;;6.35;2.15;;;;;;;;;;5008197;28;20022;-78
2023/03/23 11:16:35;;;;;;;6.53;2.17;;;;;;;;;;5001814;28;20026;-79
2023/03/23 11:19:15;;;;;;;6.53;2.75;;;;;;;;;;4987071;28;20022;-77
2023/03/23 11:21:47;;;;;;;6.70;2.80;;;;;;;;;;5006495;28;20046;-76
2023/03/23 11:24:13;;;;;;;5.60;2.67;;;;;;;;;;5007343;28;20022;-77
2023/03/23 11:26:39;;;;;;;6.07;2.65;;;;;;;;;;4987361;28;20030;-77
2023/03/23 11:29:24;;;;;;;5.93;2.58;;;;;;;;;;5009904;28;20026;-79
2023/03/23 11:31:53;;;;;;;5.35;2.40;;;;;;;;;;4982703;28;20030;-79
2023/03/23 11:34:24;;;;;;;6.10;3.30;;;;;;;;;;4991121;28;20065;-77
2023/03/23 11:37:01;;;;;;;8.35;3.67;;;;;;;;;;4986702;28;20018;-79
2023/03/23 11:39:31;;;;;;;6.82;2.63;;;;;;;;;;5006377;28;20026;-77
2023/03/23 11:42:00;;;;;;;6.88;2.67;;;;;;;;;;5004891;28;20030;-78
2023/03/23 11:44:34;;;;;;;5.85;2.30;;;;;;;;;;5007942;28;20498;-78
2023/03/23 11:47:19;;;;;;;5.75;2.15;;;;;;;;;;4989937;28;20029;-78
2023/03/23 11:50:08;;;;;;;5.75;2.20;;;;;;;;;;5018815;28;20133;-77
2023/03/23 11:52:52;;;;;;;4.18;1.73;;;;;;;;;;4986252;28;20021;-78
2023/03/23 11:55:25;;;;;;;6.57;1.85;;;;;;;;;;5006133;28;20085;-78
2023/03/23 11:57:51;;;;;;;5.72;1.75;;;;;;;;;;5004953;28;20026;-77
2023/03/23 12:00:19;;;;;;;3.70;1.60;;;;;;;;;;4995079;28;20034;-77
2023/03/23 12:03:11;;;;;;;5.32;1.48;;;;;;;;;;4986210;28;20022;-79
2023/03/23 12:05:44;;;;;;;4.60;1.27;;;;;;;;;;5002520;28;20057;-80
2023/03/23 12:08:24;;;;;;;4.32;1.42;;;;;;;;;;4990402;28;20034;-78
2023/03/23 12:11:09;;;;;;;4.75;1.45;;;;;;;;;;4984031;28;20032;-78
2023/03/23 12:13:55;;;;;;;6.97;1.80;;;;;;;;;;5005674;28;20058;-78
2023/03/23 12:16:23;;;;;;;5.03;1.90;;;;;;;;;;5006385;28;20046;-80
2023/03/23 12:19:45;;;;;;;4.68;2.20;;;;;;;;;;5006206;28;20030;-78
2023/03/23 12:22:33;;;;;;;4.57;1.73;;;;;;;;;;4994416;28;20387;-78
2023/03/23 12:25:10;;;;;;;5.85;1.70;;;;;;;;;;5000978;28;20021;-79
2023/03/23 12:28:15;;;;;;;7.07;1.30;;;;;;;;;;4984735;28;20026;-79
2023/03/23 12:31:06;;;;;;;5.75;1.50;;;;;;;;;;5003435;28;20027;-77
2023/03/23 12:33:49;;;;;;;3.03;1.20;;;;;;;;;;5003770;28;20046;-78
2023/03/23 12:36:37;;;;;;;3.70;1.25;;;;;;;;;;5009140;28;20018;-77
2023/03/23 12:39:14;;;;;;;4.35;1.35;;;;;;;;;;5013558;28;20533;-79
2023/03/23 12:41:51;;;;;;;6.55;1.58;;;;;;;;;;5002565;28;20050;-78
2023/03/23 12:44:21;;;;;;;3.97;1.40;;;;;;;;;;5010185;28;20030;-79
2023/03/23 12:47:02;;;;;;;5.45;1.45;;;;;;;;;;5015121;28;20046;-79
2023/03/23 12:49:49;;;;;;;3.55;1.38;;;;;;;;;;4993595;28;20093;-79
2023/03/23 12:52:28;;;;;;;3.15;1.50;;;;;;;;;;5019694;28;20030;-78
2023/03/23 12:55:07;;;;;;;5.45;1.80;;;;;;;;;;4991294;28;20023;-78
2023/03/23 12:57:59;;;;;;;4.78;1.10;;;;;;;;;;4996141;28;20038;-78
2023/03/23 13:00:34;;;;;;;4.90;1.40;;;;;;;;;;5010199;28;20040;-79
2023/03/23 13:03:06;;;;;;;5.72;1.60;;;;;;;;;;5002747;28;20072;-78
2023/03/23 13:05:44;;;;;;;2.57;1.13;;;;;;;;;;5015680;28;20042;-77
2023/03/23 13:08:24;;;;;;;7.38;1.48;;;;;;;;;;5008850;28;20031;-80
2023/03/23 13:10:51;;;;;;;5.55;1.60;;;;;;;;;;4991031;28;20050;-78
2023/03/23 13:14:00;;;;;;;5.32;1.70;;;;;;;;;;5009276;28;20072;-79
2023/03/23 13:16:40;;;;;;;4.97;1.90;;;;;;;;;;4983558;28;20034;-79
2023/03/23 13:19:25;;;;;;;3.05;1.60;;;;;;;;;;5029530;28;20026;-80
2023/03/23 13:22:01;;;;;;;3.47;1.80;;;;;;;;;;5005527;28;20027;-78
2023/03/23 13:24:31;;;;;;;5.18;1.98;;;;;;;;;;5001479;28;20034;-77
2023/03/23 13:26:57;;;;;;;6.70;1.95;;;;;;;;;;4997871;28;20053;-78
2023/03/23 13:29:24;;;;;;;3.85;1.65;;;;;;;;;;5012856;28;20026;-78
2023/03/23 13:31:51;;;;;;;6.18;1.80;;;;;;;;;;5013697;28;20022;-78
2023/03/23 13:34:30;;;;;;;6.60;2.28;;;;;;;;;;5002696;28;20049;-78
2023/03/23 13:37:05;;;;;;;5.47;2.50;;;;;;;;;;4989363;28;20049;-77
2023/03/23 13:39:34;;;;;;;4.90;1.63;;;;;;;;;;5017506;28;20026;-78
2023/03/23 13:42:01;;;;;;;4.78;1.67;;;;;;;;;;5021715;28;20026;-77
2023/03/23 13:44:40;;;;;;;4.25;1.95;;;;;;;;;;4991920;28;20045;-79
2023/03/23 13:47:35;;;;;;;6.82;1.58;;;;;;;;;;4996777;28;20045;-78
2023/03/23 13:50:09;;;;;;;4.45;1.50;;;;;;;;;;4987687;28;20034;-78
2023/03/23 13:52:43;;;;;;;5.63;1.80;;;;;;;;;;5001884;28;20023;-79
2023/03/23 13:55:20;;;;;;;4.70;1.67;;;;;;;;;;5010266;28;20026;-78
2023/03/23 13:57:51;;;;;;;3.95;1.42;;;;;;;;;;5016962;28;20481;-77
2023/03/23 14:00:28;;;;;;;3.17;1.65;;;;;;;;;;4995238;28;20036;-78
2023/03/23 14:03:09;;;;;;;4.82;1.52;;;;;;;;;;4994291;28;20030;-77
2023/03/23 14:05:35;;;;;;;3.35;1.10;;;;;;;;;;4986520;28;20040;-78
2023/03/23 14:08:06;;;;;;;5.07;1.88;;;;;;;;;;5016126;28;20089;-77
2023/03/23 14:10:39;;;;;;;6.25;1.60;;;;;;;;;;4999031;28;20054;-77
2023/03/23 14:13:14;;;;;;;3.72;1.20;;;;;;;;;;5007473;28;20148;-78
2023/03/23 14:15:53;;;;;;;8.25;3.40;;;;;;;;;;4987774;28;20402;-78
2023/03/23 14:18:21;;;;;;;4.13;1.67;;;;;;;;;;4998902;28;20109;-79
2023/03/23 14:20:48;;;;;;;11.75;3.38;;;;;;;;;;5004723;28;20030;-78
2023/03/23 14:23:19;;;;;;;8.30;2.67;;;;;;;;;;5005429;28;20031;-79
2023/03/23 14:25:54;;;;;;;9.77;3.35;;;;;;;;;;5001070;28;20037;-81
2023/03/23 14:28:37;;;;;;;;;;;;;;;;;;;;;
2023/03/23 14:31:31;;;;;;;5.85;1.35;;;;;;;;;;5004745;28;20476;-78
2023/03/23 14:34:06;;;;;;;7.22;2.10;;;;;;;;;;5028178;28;20057;-79
2023/03/23 14:37:01;;;;;;;4.15;1.58;;;;;;;;;;4989713;28;20030;-79
2023/03/23 14:39:31;;;;;;;7.18;1.95;;;;;;;;;;4988174;28;20046;-77
2023/03/23 14:42:07;;;;;;;7.32;2.20;;;;;;;;;;4992391;28;20033;-79
2023/03/23 14:44:35;;;;;;;5.75;1.80;;;;;;;;;;5007209;28;20034;-77
2023/03/23 14:47:11;;;;;;;5.63;1.70;;;;;;;;;;5027742;28;20038;-78
2023/03/23 14:49:41;;;;;;;4.75;1.73;;;;;;;;;;4984423;28;20022;-79
2023/03/23 14:52:12;;;;;;;6.35;1.85;;;;;;;;;;4995665;28;20018;-78
2023/03/23 14:58:19;;;;;;;5.63;1.88;;;;;;;;;;5016478;28;20034;-78
2023/03/23 15:01:06;;;;;;;8.05;2.13;;;;;;;;;;5011448;28;20041;-78
2023/03/23 15:06:56;;;;;;;5.63;1.88;;;;;;;;;;5004271;28;20036;-79
2023/03/23 15:09:47;;;;;;;5.72;1.65;;;;;;;;;;5010887;28;20026;-80
2023/03/23 15:12:35;;;;;;;5.25;1.80;;;;;;;;;;4976782;28;20062;-80
2023/03/23 15:15:23;;;;;;;7.13;1.60;;;;;;;;;;4966931;28;20022;-78